Delta Virtual Airport Information Service

Dublin Airport

ICAO: EIDW Country: Ireland
Latitude: 53.4214 Longitude: -6.27
Latest Arrival : AFR1016 (LFPG-EIDW) Latest Departure : RYR112 (1) (EIDW-EGKK)


WX CaptureLIVE
Data provided by noaa.gov | Fetched at 08:50:38

METAR : EIDW 041330Z 23015G26KT 190V280 9999 SCT025 SCT200 22/16 Q1004 NOSIG

TAF : EIDW 041100Z 0412/0512 22015G30KT 9999 BKN030 TEMPO 0420/0502 4000 RA BKN009 BECMG 0422/0424 21013KT TEMPO 0502/0512 BKN014 TEMPO 0508/0512 3000 SHRA BKN008


Runway Data for EIDW
Data provided by openaviationdata.com

Runway ID Mag Var Hdg Length Elevation Surface ILS Freq ILS Id ILS Slope
10 -5 100° 8842 ft 242 ft Asphalt 108.9 IDE 3
16 -5 162° 6824 ft 242 ft Asphalt 111.5 IAC 3
28 -5 280° 8842 ft 242 ft Asphalt 111.35 IDW 3
34 -5 342° 6824 ft 242 ft Asphalt -- -- --

Dublin Airport, Ireland
Use only for reference purposes



Not for navigational purposes.